Time;durP1;ratioP1;P1;durP2;ratioP2;P2;SDS_P1;SDS_P2;PMS_P1;PMS_P2;Temp;Humidity;BMP_temperature;BMP_pressure;BME280_temperature;BME280_humidity;BME280_pressure;Samples;Min_cycle;Max_cycle;Signal;HPM_P1;HPM_P2
2022/01/01 00:02:25;;;;;;;85.28;61.10;;;;;;;4.23;100.00;100363.50;5011817;28;20029;-66
2022/01/01 00:04:50;;;;;;;95.47;68.05;;;;;;;4.27;100.00;100353.47;5011488;28;20029;-66
2022/01/01 00:07:16;;;;;;;96.20;68.43;;;;;;;4.05;100.00;100353.38;5011621;28;20136;-66
2022/01/01 00:09:43;;;;;;;101.55;70.53;;;;;;;4.43;100.00;100406.38;5026609;28;20125;-66
2022/01/01 00:12:10;;;;;;;95.35;69.85;;;;;;;4.07;100.00;100346.69;5026846;28;20560;-66
2022/01/01 00:14:36;;;;;;;110.10;82.00;;;;;;;3.96;100.00;100308.09;5011829;28;20043;-66
2022/01/01 00:17:02;;;;;;;100.95;74.00;;;;;;;4.34;100.00;100382.00;5011471;28;20470;-66
2022/01/01 00:19:27;;;;;;;131.10;97.53;;;;;;;4.21;100.00;100387.84;5010057;28;20038;-67
2022/01/01 00:21:53;;;;;;;117.40;84.28;;;;;;;4.23;100.00;100345.91;5011490;28;20033;-67
2022/01/01 00:24:18;;;;;;;141.10;101.78;;;;;;;4.20;100.00;100381.94;5010979;28;20030;-66
2022/01/01 00:26:43;;;;;;;149.27;109.35;;;;;;;4.02;100.00;100388.59;5011130;28;20029;-67
2022/01/01 00:29:09;;;;;;;157.98;115.03;;;;;;;4.26;100.00;100384.50;5011393;28;20100;-66
2022/01/01 00:31:35;;;;;;;151.18;111.15;;;;;;;4.34;100.00;100392.06;5011153;28;20499;-67
2022/01/01 00:34:00;;;;;;;147.15;104.90;;;;;;;4.50;100.00;100373.66;5011327;28;20038;-66
2022/01/01 00:36:26;;;;;;;143.77;103.07;;;;;;;4.34;100.00;100397.09;5010925;28;20026;-66
2022/01/01 00:38:52;;;;;;;150.88;106.82;;;;;;;4.05;100.00;100344.16;5025949;28;20069;-66
2022/01/01 00:41:18;;;;;;;146.40;105.95;;;;;;;3.90;100.00;100321.44;5009739;28;20057;-67
2022/01/01 00:43:43;;;;;;;143.70;99.15;;;;;;;4.10;100.00;100386.97;5011100;28;20116;-67
2022/01/01 00:46:09;;;;;;;134.15;88.90;;;;;;;4.33;100.00;100386.22;5010786;28;20108;-67
2022/01/01 00:48:34;;;;;;;128.05;85.30;;;;;;;3.84;100.00;100358.31;5010958;28;20125;-67
2022/01/01 00:51:00;;;;;;;114.05;77.75;;;;;;;4.42;100.00;100384.56;5011174;28;20018;-66
2022/01/01 00:53:25;;;;;;;119.93;81.40;;;;;;;3.91;100.00;100329.84;5025746;28;20037;-67
2022/01/01 00:55:51;;;;;;;107.55;75.53;;;;;;;4.58;100.00;100361.94;5010557;28;20037;-66
2022/01/01 00:58:16;;;;;;;103.13;70.68;;;;;;;4.40;100.00;100371.94;5011118;28;20026;-66
2022/01/01 01:03:18;;;;;;;99.97;68.47;;;;;;;3.75;100.00;100320.53;3958138;22;10000683;-68
2022/01/01 01:05:46;;;;;;;87.45;59.13;;;;;;;4.35;100.00;100371.13;5010756;28;20042;-68
2022/01/01 01:08:14;;;;;;;88.13;58.15;;;;;;;4.11;100.00;100328.25;5012322;28;20049;-65
2022/01/01 01:10:40;;;;;;;105.78;69.15;;;;;;;4.11;100.00;100348.38;5015351;28;20511;-65
2022/01/01 01:13:08;;;;;;;87.95;60.13;;;;;;;4.51;100.00;100362.78;5010231;28;20099;-65
2022/01/01 01:15:34;;;;;;;86.32;58.53;;;;;;;4.04;100.00;100312.28;5009432;28;20025;-65
2022/01/01 01:18:01;;;;;;;87.28;59.67;;;;;;;4.15;100.00;100371.03;5010835;28;20030;-65
2022/01/01 01:20:28;;;;;;;110.60;75.75;;;;;;;3.50;100.00;100276.88;5010434;28;20037;-65
2022/01/01 01:22:53;;;;;;;110.35;75.45;;;;;;;4.24;100.00;100342.53;5010665;28;20526;-65
2022/01/01 01:25:21;;;;;;;110.30;72.40;;;;;;;4.13;100.00;100354.25;5010735;28;20026;-65
2022/01/01 01:27:47;;;;;;;105.65;69.28;;;;;;;3.73;100.00;100339.81;5010037;28;20036;-65
2022/01/01 01:30:15;;;;;;;83.72;53.78;;;;;;;3.60;100.00;100295.34;5010705;28;20044;-65
2022/01/01 01:32:41;;;;;;;94.05;57.88;;;;;;;3.63;100.00;100290.31;5009275;28;20049;-65
2022/01/01 01:35:07;;;;;;;85.32;54.35;;;;;;;3.76;100.00;100325.59;5010269;28;20064;-65
2022/01/01 01:37:33;;;;;;;92.72;55.42;;;;;;;3.42;100.00;100286.88;5010487;28;20033;-65
2022/01/01 01:39:59;;;;;;;105.97;64.57;;;;;;;3.88;100.00;100329.84;5010221;28;20030;-66
2022/01/01 01:42:27;;;;;;;116.03;64.82;;;;;;;3.49;100.00;100320.41;5010212;28;20021;-65
2022/01/01 01:44:54;;;;;;;127.60;70.85;;;;;;;3.35;100.00;100281.78;5010693;28;20085;-65
2022/01/01 01:47:29;;;;;;;130.52;71.28;;;;;;;3.23;100.00;100284.22;5010253;28;20030;-65
2022/01/01 01:49:55;;;;;;;113.97;66.03;;;;;;;3.84;100.00;100313.06;5012595;28;20038;-65
2022/01/01 01:52:21;;;;;;;151.95;73.80;;;;;;;3.21;100.00;100294.28;5014247;28;20092;-65
2022/01/01 01:54:47;;;;;;;134.75;72.07;;;;;;;3.18;100.00;100275.84;5012403;28;20456;-65
2022/01/01 01:57:13;;;;;;;121.22;65.47;;;;;;;3.69;100.00;100338.97;5014282;28;20034;-65
2022/01/01 01:59:40;;;;;;;139.85;74.97;;;;;;;3.65;100.00;100297.03;5013977;28;20033;-65
2022/01/01 02:02:07;;;;;;;125.60;69.18;;;;;;;3.73;100.00;100324.72;5013747;28;20050;-66
2022/01/01 02:04:32;;;;;;;128.68;73.35;;;;;;;3.52;100.00;100272.69;5013921;28;20037;-65
2022/01/01 02:06:58;;;;;;;121.25;67.88;;;;;;;3.51;100.00;100260.94;5013529;28;20025;-66
2022/01/01 02:09:24;;;;;;;110.72;64.55;;;;;;;3.37;100.00;100238.28;5013897;28;20076;-65
2022/01/01 02:11:52;;;;;;;121.55;69.60;;;;;;;3.59;100.00;100289.47;5013778;28;20033;-65
2022/01/01 02:15:04;;;;;;;101.90;61.92;;;;;;;3.89;100.00;100297.16;5013634;28;20038;-65
2022/01/01 02:19:30;;;;;;;109.15;66.43;;;;;;;3.39;100.00;100219.03;5013425;28;20037;-65
2022/01/01 02:21:59;;;;;;;117.00;71.40;;;;;;;3.39;100.00;100264.25;5013563;28;20497;-65
2022/01/01 02:24:25;;;;;;;104.47;63.75;;;;;;;3.25;100.00;100217.28;5014056;28;20034;-65
2022/01/01 02:26:51;;;;;;;111.18;69.00;;;;;;;3.69;100.00;100298.75;5013369;28;20034;-65
2022/01/01 02:29:17;;;;;;;115.30;70.22;;;;;;;3.65;100.00;100289.50;5013913;28;20029;-66
2022/01/01 02:31:43;;;;;;;112.25;71.68;;;;;;;3.60;100.00;100245.09;5012051;28;20450;-66
2022/01/01 02:34:10;;;;;;;139.88;77.93;;;;;;;3.74;100.00;100297.09;5013352;28;20492;-66
2022/01/01 02:36:40;;;;;;;138.88;81.00;;;;;;;3.81;100.00;100273.66;5013052;28;20040;-66
2022/01/01 02:39:15;;;;;;;142.97;81.13;;;;;;;3.69;100.00;100286.19;5012074;28;20034;-66
2022/01/01 02:41:41;;;;;;;152.00;85.82;;;;;;;3.31;100.00;100230.72;5013361;28;20342;-66
2022/01/01 02:44:07;;;;;;;136.05;80.28;;;;;;;3.86;100.00;100278.72;5013048;28;20112;-66
2022/01/01 02:46:34;;;;;;;131.68;77.75;;;;;;;3.81;100.00;100267.78;5013002;28;20110;-66
2022/01/01 02:49:00;;;;;;;111.00;66.63;;;;;;;3.21;100.00;100208.88;5012843;28;20393;-68
2022/01/01 02:51:26;;;;;;;111.82;63.63;;;;;;;3.73;100.00;100255.19;5013114;28;20091;-66
2022/01/01 02:53:51;;;;;;;136.20;70.75;;;;;;;3.56;100.00;100268.53;5013187;28;20040;-66
2022/01/01 02:56:16;;;;;;;130.63;74.95;;;;;;;2.84;100.00;100174.38;5011659;28;20037;-65
2022/01/01 02:58:42;;;;;;;254.52;84.97;;;;;;;3.06;100.00;100264.06;5011465;28;20513;-66
2022/01/01 03:01:09;;;;;;;273.42;80.90;;;;;;;3.12;100.00;100274.13;5011254;28;20076;-66
2022/01/01 03:03:35;;;;;;;216.88;68.82;;;;;;;2.85;100.00;100268.09;5011237;28;20046;-66
2022/01/01 03:06:00;;;;;;;296.35;64.72;;;;;;;3.21;100.00;100284.22;5012883;28;20109;-66
2022/01/01 03:08:26;;;;;;;189.88;54.47;;;;;;;2.50;100.00;100222.63;5011457;28;20128;-66
2022/01/01 03:10:51;;;;;;;218.75;55.80;;;;;;;2.80;100.00;100232.91;5012721;28;20392;-65
2022/01/01 03:13:18;;;;;;;184.45;47.35;;;;;;;2.58;100.00;100176.69;5012728;28;20064;-65
2022/01/01 03:15:43;;;;;;;255.65;52.83;;;;;;;3.18;100.00;100276.69;5012544;28;20088;-66
2022/01/01 03:18:09;;;;;;;183.75;48.92;;;;;;;2.92;100.00;100273.16;5012319;28;20030;-65
2022/01/01 03:20:34;;;;;;;406.38;55.50;;;;;;;3.15;100.00;100274.16;5012257;28;20037;-65
2022/01/01 03:23:00;;;;;;;258.42;53.88;;;;;;;2.76;100.00;100221.16;5012750;28;20026;-65
2022/01/01 03:25:25;;;;;;;200.27;48.67;;;;;;;3.08;100.00;100252.34;5012669;28;20057;-65
2022/01/01 03:27:51;;;;;;;240.30;47.08;;;;;;;3.11;100.00;100254.03;5012377;28;20034;-65
2022/01/01 03:30:16;;;;;;;170.55;44.90;;;;;;;2.74;100.00;100217.78;5012269;28;20108;-65
2022/01/01 03:32:41;;;;;;;120.82;41.92;;;;;;;2.93;100.00;100247.22;5011993;28;20095;-65
2022/01/01 03:35:07;;;;;;;86.65;41.20;;;;;;;2.99;100.00;100192.00;5012251;28;20470;-65
2022/01/01 03:37:33;;;;;;;114.00;42.13;;;;;;;3.13;100.00;100219.75;5012440;28;20056;-65
2022/01/01 03:39:58;;;;;;;266.30;57.25;;;;;;;3.22;100.00;100255.78;5012432;28;20030;-65
2022/01/01 03:42:23;;;;;;;136.90;48.58;;;;;;;2.97;100.00;100246.41;5012026;28;20125;-65
2022/01/01 03:44:49;;;;;;;181.45;49.97;;;;;;;3.01;100.00;100237.25;5012077;28;20026;-65
2022/01/01 03:47:14;;;;;;;130.52;43.58;;;;;;;3.18;100.00;100231.50;5011655;28;20411;-66
2022/01/01 03:49:40;;;;;;;86.10;40.85;;;;;;;2.71;100.00;100150.03;5011728;28;20021;-66
2022/01/01 03:52:06;;;;;;;69.85;40.80;;;;;;;2.89;100.00;100195.34;5012006;28;20030;-66
2022/01/01 03:54:32;;;;;;;112.35;46.95;;;;;;;3.03;100.00;100207.97;5010724;28;20029;-66
2022/01/01 03:56:57;;;;;;;117.68;48.47;;;;;;;3.26;100.00;100256.63;5011807;28;20145;-66
2022/01/01 03:59:25;;;;;;;160.73;51.75;;;;;;;3.06;100.00;100218.84;5011719;28;20034;-66
2022/01/01 04:01:50;;;;;;;134.18;51.90;;;;;;;2.64;100.00;100211.88;5010056;28;20036;-66
2022/01/01 04:04:16;;;;;;;122.68;51.33;;;;;;;3.06;100.00;100250.66;5011385;28;20038;-66
2022/01/01 04:06:41;;;;;;;99.38;49.33;;;;;;;2.42;100.00;100161.53;5011661;28;20022;-66
2022/01/01 04:09:07;;;;;;;114.57;53.33;;;;;;;3.18;100.00;100255.75;5011680;28;20459;-66
2022/01/01 04:11:32;;;;;;;104.57;53.70;;;;;;;3.33;100.00;100264.22;5010948;28;20036;-65
2022/01/01 04:13:58;;;;;;;85.53;49.70;;;;;;;3.15;100.00;100208.84;5011401;28;20409;-65
2022/01/01 04:16:23;;;;;;;83.32;47.33;;;;;;;2.77;100.00;100180.19;5011308;28;20484;-66
2022/01/01 04:18:49;;;;;;;93.15;49.08;;;;;;;3.32;100.00;100249.13;5011443;28;20463;-66
2022/01/01 04:21:15;;;;;;;92.35;47.65;;;;;;;3.25;100.00;100243.22;5011482;28;20044;-66
2022/01/01 04:23:44;;;;;;;81.78;44.67;;;;;;;3.17;100.00;100256.59;5011451;28;20108;-66
2022/01/01 04:26:10;;;;;;;88.18;48.25;;;;;;;3.11;100.00;100257.38;5011222;28;20033;-66
2022/01/01 04:28:36;;;;;;;97.50;48.75;;;;;;;2.93;100.00;100218.78;5011368;28;20032;-66
2022/01/01 04:31:01;;;;;;;104.55;50.53;;;;;;;2.79;100.00;100260.50;5011090;28;20026;-65
2022/01/01 04:33:27;;;;;;;82.53;44.83;;;;;;;2.58;100.00;100226.03;5009653;28;20038;-65
2022/01/01 04:35:52;;;;;;;88.63;46.15;;;;;;;2.84;100.00;100284.81;5009876;28;20030;-65
2022/01/01 04:40:55;;;;;;;78.55;38.42;;;;;;;2.56;100.00;100260.31;5011017;28;20034;-65
2022/01/01 04:43:20;;;;;;;83.60;38.47;;;;;;;2.35;100.00;100266.00;5011055;28;20041;-64
2022/01/01 04:45:46;;;;;;;68.90;36.90;;;;;;;2.45;100.00;100264.41;5010760;28;20029;-66
2022/01/01 04:48:11;;;;;;;71.18;39.20;;;;;;;2.41;100.00;100223.41;5010800;28;20512;-65
2022/01/01 04:50:36;;;;;;;83.93;44.92;;;;;;;2.47;100.00;100236.00;5011246;28;20411;-65
2022/01/01 04:53:02;;;;;;;77.82;41.22;;;;;;;2.77;100.00;100260.50;5010880;28;20025;-65
2022/01/01 04:55:27;;;;;;;107.30;44.20;;;;;;;2.78;100.00;100267.19;5010611;28;20484;-65
2022/01/01 04:57:53;;;;;;;98.55;46.65;;;;;;;2.45;100.00;100222.59;5009634;28;20030;-65
2022/01/01 05:00:18;;;;;;;94.65;48.90;;;;;;;2.59;100.00;100215.19;5010535;28;20502;-65
2022/01/01 05:02:43;;;;;;;114.95;51.92;;;;;;;2.39;100.00;100219.19;5010587;28;20050;-65
2022/01/01 05:05:09;;;;;;;107.25;52.75;;;;;;;2.24;100.00;100236.63;5010853;28;20026;-65
2022/01/01 05:07:35;;;;;;;120.90;52.55;;;;;;;2.16;100.00;100225.69;5010729;28;20557;-65
2022/01/01 05:10:00;;;;;;;92.85;46.15;;;;;;;2.17;100.00;100194.75;5010573;28;20474;-65
2022/01/01 05:12:26;;;;;;;105.45;49.95;;;;;;;2.50;100.00;100287.84;5009357;28;20025;-65
2022/01/01 05:14:51;;;;;;;109.75;40.45;;;;;;;2.44;100.00;100270.22;5010365;28;20030;-65
2022/01/01 05:17:18;;;;;;;89.35;37.75;;;;;;;2.63;100.00;100262.88;5010663;28;20037;-65
2022/01/01 05:19:43;;;;;;;101.03;44.65;;;;;;;2.67;100.00;100267.09;5010625;28;20026;-66
2022/01/01 05:22:09;;;;;;;156.93;44.50;;;;;;;2.62;100.00;100261.22;5010740;28;20041;-65
2022/01/01 05:24:34;;;;;;;89.78;41.58;;;;;;;2.66;100.00;100277.13;5013754;28;20036;-65
2022/01/01 05:27:00;;;;;;;231.27;46.28;;;;;;;2.45;100.00;100217.59;5014624;28;20545;-65
2022/01/01 05:29:25;;;;;;;85.97;37.80;;;;;;;2.68;100.00;100252.88;5014359;28;20488;-66
2022/01/01 05:31:51;;;;;;;147.27;50.20;;;;;;;2.84;100.00;100288.97;5014531;28;20036;-65
2022/01/01 05:34:16;;;;;;;70.85;40.55;;;;;;;2.79;100.00;100221.19;5013238;28;20088;-65
2022/01/01 05:36:41;;;;;;;123.10;45.58;;;;;;;3.04;100.00;100270.72;5014963;28;20494;-65
2022/01/01 05:39:08;;;;;;;85.57;44.78;;;;;;;3.06;100.00;100240.59;5014231;28;20040;-65
2022/01/01 05:41:34;;;;;;;147.85;50.03;;;;;;;3.15;100.00;100276.66;5014251;28;20112;-65
2022/01/01 05:43:59;;;;;;;176.90;55.03;;;;;;;3.02;100.00;100269.03;5014073;28;20058;-66
2022/01/01 05:46:25;;;;;;;109.30;55.75;;;;;;;2.93;100.00;100236.34;5014189;28;20033;-66
2022/01/01 05:48:50;;;;;;;114.22;56.80;;;;;;;2.85;100.00;100213.72;5014299;28;20034;-66
2022/01/01 05:51:16;;;;;;;121.63;63.30;;;;;;;3.00;100.00;100217.97;5014205;28;20451;-66
2022/01/01 05:53:41;;;;;;;130.43;67.28;;;;;;;3.21;100.00;100283.41;5014102;28;20411;-66
2022/01/01 05:56:07;;;;;;;124.53;64.10;;;;;;;3.33;100.00;100241.59;5014298;28;20037;-66
2022/01/01 05:58:32;;;;;;;137.88;73.10;;;;;;;2.91;100.00;100175.25;5014242;28;20046;-65
2022/01/01 06:00:57;;;;;;;117.00;68.00;;;;;;;3.40;100.00;100212.34;5013662;28;20030;-65
2022/01/01 06:03:23;;;;;;;109.85;64.05;;;;;;;3.30;100.00;100193.88;5013708;28;20052;-65
2022/01/01 06:05:51;;;;;;;110.85;63.70;;;;;;;3.59;100.00;100251.78;5013943;28;20499;-65
2022/01/01 06:08:18;;;;;;;120.53;71.72;;;;;;;3.72;100.00;100266.09;5013597;28;20026;-66
2022/01/01 06:10:43;;;;;;;106.70;65.38;;;;;;;3.46;100.00;100263.47;5013925;28;20022;-65
2022/01/01 06:13:09;;;;;;;107.93;67.60;;;;;;;3.71;100.00;100251.84;5013604;28;20473;-66
2022/01/01 06:15:34;;;;;;;103.28;64.72;;;;;;;3.37;100.00;100224.88;5012359;28;20030;-65
2022/01/01 06:18:00;;;;;;;174.18;89.07;;;;;;;3.45;100.00;100243.34;5014179;28;20543;-65
2022/01/01 06:20:26;;;;;;;98.18;59.20;;;;;;;3.33;100.00;100188.00;5013544;28;20034;-65
2022/01/01 06:22:51;;;;;;;93.45;60.30;;;;;;;3.17;100.00;100222.25;5013361;28;20038;-66
2022/01/01 06:25:17;;;;;;;103.75;64.35;;;;;;;3.49;100.00;100255.94;5013625;28;20030;-65
2022/01/01 06:27:42;;;;;;;107.90;66.95;;;;;;;3.60;100.00;100250.13;5011902;28;20040;-65
2022/01/01 06:30:08;;;;;;;107.68;67.43;;;;;;;3.47;100.00;100234.13;5013181;28;20064;-65
2022/01/01 06:32:34;;;;;;;105.72;64.82;;;;;;;3.84;100.00;100263.63;5013628;28;20034;-66
2022/01/01 06:34:59;;;;;;;88.10;56.63;;;;;;;3.58;100.00;100227.50;5012501;28;20117;-65
2022/01/01 06:37:26;;;;;;;114.13;69.80;;;;;;;3.58;100.00;100246.75;5011989;28;20034;-65
2022/01/01 06:39:51;;;;;;;140.50;89.65;;;;;;;3.62;100.00;100231.69;5013253;28;20030;-66
2022/01/01 06:42:17;;;;;;;207.73;127.22;;;;;;;3.41;100.00;100217.34;5013300;28;20056;-66
2022/01/01 06:44:42;;;;;;;153.55;102.07;;;;;;;3.75;100.00;100297.91;5012856;28;20498;-65
2022/01/01 06:47:11;;;;;;;133.00;90.07;;;;;;;3.77;100.00;100256.88;5013127;28;20113;-65
2022/01/01 06:49:36;;;;;;;112.13;74.93;;;;;;;3.75;100.00;100298.78;5013469;28;20030;-66
2022/01/01 06:52:03;;;;;;;128.35;85.32;;;;;;;3.57;100.00;100260.13;5012965;28;20492;-66
2022/01/01 06:54:28;;;;;;;118.85;74.10;;;;;;;3.63;100.00;100296.19;5012961;28;20034;-66
2022/01/01 06:56:54;;;;;;;117.93;76.53;;;;;;;3.39;100.00;100188.03;5012916;28;20048;-66
2022/01/01 06:59:19;;;;;;;89.55;58.72;;;;;;;3.70;100.00;100265.25;5012736;28;20033;-65
2022/01/01 07:01:44;;;;;;;108.78;69.00;;;;;;;3.34;100.00;100227.38;5012700;28;20460;-65
2022/01/01 07:04:10;;;;;;;152.07;103.07;;;;;;;3.37;100.00;100255.88;5012730;28;20034;-65
2022/01/01 07:06:35;;;;;;;96.13;62.25;;;;;;;3.38;100.00;100284.34;5012543;28;20033;-65
2022/01/01 07:09:02;;;;;;;96.18;61.85;;;;;;;3.52;100.00;100265.16;5012765;28;20030;-65
2022/01/01 07:11:27;;;;;;;78.07;52.13;;;;;;;3.03;100.00;100218.81;5012541;28;20026;-67
2022/01/01 07:13:53;;;;;;;68.28;48.17;;;;;;;3.46;100.00;100255.94;5012317;28;20235;-65
2022/01/01 07:16:20;;;;;;;61.40;42.85;;;;;;;3.58;100.00;100277.75;5012783;28;20025;-65
2022/01/01 07:18:45;;;;;;;66.72;44.33;;;;;;;3.29;100.00;100232.38;5012816;28;20135;-65
2022/01/01 07:21:11;;;;;;;84.03;56.83;;;;;;;3.48;100.00;100260.94;5012413;28;20491;-65
2022/01/01 07:23:37;;;;;;;78.10;52.85;;;;;;;3.27;100.00;100215.59;5012379;28;20056;-65
2022/01/01 07:26:02;;;;;;;75.95;53.70;;;;;;;3.41;100.00;100221.53;5012263;28;20550;-65
2022/01/01 07:28:28;;;;;;;62.60;43.72;;;;;;;3.66;100.00;100281.16;5011911;28;20034;-65
2022/01/01 07:30:53;;;;;;;70.90;48.10;;;;;;;3.71;100.00;100250.97;5011047;28;20045;-65
2022/01/01 07:33:18;;;;;;;69.15;47.35;;;;;;;3.76;100.00;100285.38;5012586;28;20036;-66
2022/01/01 07:35:44;;;;;;;61.58;41.60;;;;;;;3.72;100.00;100290.38;5012183;28;20034;-65
2022/01/01 07:38:10;;;;;;;72.72;50.17;;;;;;;3.48;100.00;100208.19;5010770;28;20044;-65
2022/01/01 07:40:36;;;;;;;69.82;49.08;;;;;;;3.84;100.00;100258.59;5012167;28;20064;-65
2022/01/01 07:43:09;;;;;;;75.85;54.75;;;;;;;3.70;100.00;100240.09;5010270;28;20057;-65
2022/01/01 07:45:34;;;;;;;88.68;63.67;;;;;;;3.74;100.00;100210.78;5012246;28;20029;-66
2022/01/01 07:48:00;;;;;;;100.10;72.30;;;;;;;4.05;100.00;100283.81;5011120;28;20421;-66
2022/01/01 07:50:25;;;;;;;97.80;71.68;;;;;;;4.22;100.00;100283.84;5012376;28;20113;-65
2022/01/01 07:52:51;;;;;;;78.05;57.75;;;;;;;4.19;100.00;100251.13;5012059;28;20459;-65
2022/01/01 07:55:16;;;;;;;98.78;69.10;;;;;;;4.10;100.00;100306.47;5011742;28;20026;-65
2022/01/01 07:57:41;;;;;;;108.53;76.85;;;;;;;4.16;100.00;100287.19;5011605;28;20030;-66
2022/01/01 08:00:08;;;;;;;125.68;93.95;;;;;;;4.19;100.00;100297.28;5011741;28;20030;-66
2022/01/01 08:02:39;;;;;;;121.85;91.47;;;;;;;3.64;100.00;100216.63;5011904;28;20113;-66
2022/01/01 08:05:05;;;;;;;119.60;91.50;;;;;;;4.37;100.00;100293.94;5010286;28;20124;-65
2022/01/01 08:07:30;;;;;;;113.85;87.18;;;;;;;3.89;100.00;100226.75;5011524;28;20149;-65
2022/01/01 08:09:55;;;;;;;118.43;85.53;;;;;;;4.13;100.00;100288.84;5011358;28;20029;-67
2022/01/01 08:12:21;;;;;;;111.50;81.15;;;;;;;4.33;100.00;100293.13;5010044;28;20120;-65
2022/01/01 08:14:46;;;;;;;92.55;66.55;;;;;;;4.33;100.00;100313.25;5010128;28;20515;-65
2022/01/01 08:17:12;;;;;;;109.18;81.72;;;;;;;4.35;100.00;100298.13;5011861;28;20037;-66
2022/01/01 08:19:38;;;;;;;89.10;64.95;;;;;;;4.30;100.00;100297.28;5009934;28;20520;-66
2022/01/01 08:22:04;;;;;;;89.97;67.07;;;;;;;4.43;100.00;100329.19;5011398;28;20032;-65
2022/01/01 08:24:30;;;;;;;74.97;53.35;;;;;;;4.29;100.00;100260.38;5009795;28;20026;-66
2022/01/01 08:26:55;;;;;;;79.07;56.85;;;;;;;4.09;100.00;100269.56;5010929;28;20140;-66
2022/01/01 08:29:21;;;;;;;96.32;69.63;;;;;;;4.28;100.00;100251.13;5011356;28;20026;-66
2022/01/01 08:31:46;;;;;;;117.43;88.55;;;;;;;4.29;100.00;100278.00;5011294;28;20435;-66
2022/01/01 08:34:12;;;;;;;103.85;80.40;;;;;;;4.67;100.00;100324.22;5011011;28;20030;-66
2022/01/01 08:36:38;;;;;;;127.10;93.70;;;;;;;4.62;100.00;100312.44;5011221;28;20075;-66
2022/01/01 08:39:05;;;;;;;101.20;76.75;;;;;;;4.70;100.00;100288.09;5009998;28;20041;-66
2022/01/01 08:41:31;;;;;;;99.53;75.15;;;;;;;4.86;100.00;100293.16;5010795;28;20025;-65
2022/01/01 08:43:57;;;;;;;105.00;78.85;;;;;;;5.04;100.00;100320.88;5011264;28;20032;-66
2022/01/01 08:46:22;;;;;;;77.82;55.35;;;;;;;4.66;100.00;100259.56;5011158;28;20026;-66
2022/01/01 08:48:48;;;;;;;76.25;52.83;;;;;;;4.81;100.00;100283.94;5009487;28;20396;-66
2022/01/01 08:51:18;;;;;;;61.92;43.17;;;;;;;4.94;100.00;100265.44;5010879;28;20033;-66
2022/01/01 08:53:44;;;;;;;76.95;51.92;;;;;;;4.87;100.00;100277.19;5010583;28;20030;-66
2022/01/01 08:56:10;;;;;;;63.60;45.33;;;;;;;5.17;100.00;100277.16;5010859;28;20419;-66
2022/01/01 08:58:36;;;;;;;72.85;50.78;;;;;;;5.48;100.00;100335.09;5015612;28;20121;-66
2022/01/01 09:01:03;;;;;;;73.18;53.22;;;;;;;5.73;100.00;100330.00;5022474;28;20036;-66
2022/01/01 09:03:29;;;;;;;71.90;54.10;;;;;;;5.19;100.00;100236.84;5030344;28;20154;-65
2022/01/01 09:05:55;;;;;;;84.40;61.70;;;;;;;5.48;100.00;100299.81;5030867;28;20104;-69
2022/01/01 09:08:22;;;;;;;69.05;51.30;;;;;;;5.53;100.00;100341.81;5030134;28;20056;-69
2022/01/01 09:10:47;;;;;;;65.60;49.50;;;;;;;5.75;100.00;100303.09;5030125;28;20495;-68
2022/01/01 09:13:13;;;;;;;74.60;54.85;;;;;;;5.49;100.00;100298.94;5030547;28;20029;-67
2022/01/01 09:15:38;;;;;;;74.63;56.60;;;;;;;5.62;100.00;100293.03;5030133;28;20026;-67
2022/01/01 09:18:04;;;;;;;72.70;56.42;;;;;;;5.87;100.00;100285.41;5030096;28;20099;-66
2022/01/01 09:20:29;;;;;;;77.43;58.58;;;;;;;5.73;100.00;100268.63;5030485;28;20030;-67
2022/01/01 09:22:55;;;;;;;85.18;65.22;;;;;;;6.26;100.00;100332.31;5030277;28;20036;-67
2022/01/01 09:25:20;;;;;;;87.60;67.03;;;;;;;6.23;100.00;100286.06;5029913;28;20056;-67
2022/01/01 09:27:46;;;;;;;95.65;73.55;;;;;;;6.17;100.00;100334.06;5028911;28;20029;-67
2022/01/01 09:30:12;;;;;;;115.25;91.25;;;;;;;6.32;100.00;100323.91;5029125;28;20483;-67
2022/01/01 09:32:38;;;;;;;123.43;97.82;;;;;;;6.13;100.00;100272.66;5030017;28;20474;-67
2022/01/01 09:35:04;;;;;;;136.93;107.53;;;;;;;6.27;100.00;100275.97;5029515;28;20029;-67
2022/01/01 09:37:32;;;;;;;126.82;103.05;;;;;;;6.75;100.00;100312.69;5009486;28;20107;-65
2022/01/01 09:39:58;;;;;;;117.50;93.55;;;;;;;6.91;100.00;100311.72;5010157;28;20037;-67
2022/01/01 09:42:23;;;;;;;61.15;44.70;;;;;;;6.71;100.00;100316.94;5009344;28;20033;-66
2022/01/01 09:44:51;;;;;;;51.05;39.08;;;;;;;6.78;100.00;100323.59;5010605;28;20037;-65
2022/01/01 09:47:16;;;;;;;49.78;37.13;;;;;;;6.86;100.00;100273.84;5009685;28;20073;-66
2022/01/01 09:49:42;;;;;;;44.35;33.80;;;;;;;6.83;100.00;100319.34;5010334;28;20057;-65
2022/01/01 09:52:09;;;;;;;48.30;35.05;;;;;;;7.06;100.00;100311.59;5009416;28;20101;-69
2022/01/01 09:54:35;;;;;;;48.80;36.60;;;;;;;6.25;100.00;100214.56;5010161;28;20091;-65
2022/01/01 09:57:01;;;;;;;53.53;40.47;;;;;;;7.03;100.00;100304.84;5009069;28;20064;-68
2022/01/01 09:59:26;;;;;;;63.78;49.60;;;;;;;6.82;100.00;100234.28;5010331;28;20609;-67
2022/01/01 10:01:52;;;;;;;58.03;44.75;;;;;;;6.71;100.00;100194.81;5009943;28;20030;-65
2022/01/01 10:04:18;;;;;;;44.88;32.70;;;;;;;7.15;100.00;100286.22;5010263;28;20018;-64
2022/01/01 10:07:00;;;;;;;49.13;37.90;;;;;;;7.33;100.00;100280.97;5009940;28;20034;-66
2022/01/01 10:09:33;;;;;;;54.42;41.40;;;;;;;7.66;100.00;100290.75;5010668;28;20442;-66
2022/01/01 10:12:00;;;;;;;50.40;35.70;;;;;;;7.49;100.00;100251.31;5026773;28;20036;-65
2022/01/01 10:14:36;;;;;;;69.85;46.42;;;;;;;7.38;100.00;100243.00;5017360;28;20431;-63
2022/01/01 10:17:23;;;;;;;80.82;49.47;;;;;;;7.71;100.00;100290.69;5013687;28;20026;-66
2022/01/01 10:19:51;;;;;;;77.30;45.75;;;;;;;7.74;100.00;100278.03;5013147;28;20034;-66
2022/01/01 10:22:22;;;;;;;56.78;35.75;;;;;;;7.49;100.00;100201.56;5012057;28;20026;-66
2022/01/01 10:27:52;;;;;;;47.88;34.33;;;;;;;8.01;100.00;100267.53;5012982;28;20388;-63
2022/01/01 10:30:35;;;;;;;53.22;40.50;;;;;;;8.01;100.00;100229.56;5013391;28;20025;-65
2022/01/01 10:33:02;;;;;;;52.80;36.15;;;;;;;8.02;100.00;100254.03;5013418;28;20033;-66
2022/01/01 10:35:33;;;;;;;45.97;32.65;;;;;;;8.23;100.00;100281.59;5013311;28;20029;-66
2022/01/01 10:37:58;;;;;;;51.67;36.78;;;;;;;8.07;100.00;100281.81;5013041;28;20038;-66
2022/01/01 10:40:26;;;;;;;50.40;35.45;;;;;;;8.14;100.00;100265.69;5011969;28;20037;-69
2022/01/01 10:42:52;;;;;;;45.22;32.70;;;;;;;8.40;100.00;100266.19;5011818;28;20407;-66
2022/01/01 10:45:38;;;;;;;44.53;34.40;;;;;;;8.50;100.00;100273.63;5013005;28;20033;-67
2022/01/01 10:48:28;;;;;;;40.70;30.58;;;;;;;8.41;100.00;100263.66;5013234;28;20026;-69
2022/01/01 10:50:56;;;;;;;37.55;28.30;;;;;;;8.28;100.00;100220.81;5012916;28;20084;-68
2022/01/01 10:53:26;;;;;;;46.88;32.65;;;;;;;8.56;100.00;100267.63;5013013;28;20076;-68
2022/01/01 10:55:57;;;;;;;38.55;28.35;;;;;;;8.59;100.00;100235.50;5011800;28;20444;-67
2022/01/01 10:58:32;;;;;;;46.85;34.85;;;;;;;8.49;100.00;100208.63;5012562;28;20033;-68
2022/01/01 11:01:07;;;;;;;42.67;32.80;;;;;;;8.64;100.00;100259.06;5012746;28;20041;-65
2022/01/01 11:03:43;;;;;;;39.13;30.58;;;;;;;8.34;100.00;100203.78;5012919;28;20053;-66
2022/01/01 11:06:10;;;;;;;46.67;36.35;;;;;;;8.66;100.00;100244.66;5012721;28;20037;-68
2022/01/01 11:08:39;;;;;;;40.08;31.48;;;;;;;8.79;100.00;100239.41;5013097;28;20030;-65
2022/01/01 11:11:05;;;;;;;35.20;26.45;;;;;;;9.06;100.00;100251.59;5012736;28;20038;-67
2022/01/01 11:13:34;;;;;;;33.75;27.48;;;;;;;8.92;100.00;100235.78;5010940;28;20037;-67